createdAt,value
2022-10-20T00:01:09.885Z,100.00
2022-10-20T00:03:39.937Z,100.00
2022-10-20T00:06:11.323Z,100.00
2022-10-20T00:08:39.971Z,100.00
2022-10-20T00:11:09.339Z,100.00
2022-10-20T00:13:37.484Z,100.00
2022-10-20T00:16:05.386Z,100.00
2022-10-20T00:18:33.413Z,100.00
2022-10-20T00:21:00.607Z,100.00
2022-10-20T00:23:28.073Z,100.00
2022-10-20T00:26:06.998Z,100.00
2022-10-20T00:28:35.107Z,100.00
2022-10-20T00:31:03.476Z,100.00
2022-10-20T00:33:31.094Z,100.00
2022-10-20T00:36:02.849Z,100.00
2022-10-20T00:38:30.823Z,100.00
2022-10-20T00:41:00.290Z,100.00
2022-10-20T00:43:41.412Z,100.00
2022-10-20T00:46:08.872Z,100.00
2022-10-20T00:48:36.268Z,100.00
2022-10-20T00:51:03.982Z,100.00
2022-10-20T00:53:31.482Z,100.00
2022-10-20T00:56:00.248Z,100.00
2022-10-20T00:58:28.856Z,100.00
2022-10-20T01:00:59.835Z,100.00
2022-10-20T01:03:49.850Z,100.00
2022-10-20T01:06:19.245Z,100.00
2022-10-20T01:08:46.798Z,100.00
2022-10-20T01:11:19.722Z,100.00
2022-10-20T01:14:29.268Z,100.00
2022-10-20T01:17:18.377Z,100.00
2022-10-20T01:20:07.403Z,100.00
2022-10-20T01:22:44.700Z,100.00
2022-10-20T01:25:30.469Z,100.00
2022-10-20T01:28:23.037Z,100.00
2022-10-20T01:30:59.318Z,100.00
2022-10-20T01:33:38.468Z,100.00
2022-10-20T01:36:25.327Z,100.00
2022-10-20T01:39:02.122Z,100.00
2022-10-20T01:41:41.037Z,100.00
2022-10-20T01:44:12.313Z,100.00
2022-10-20T01:46:42.887Z,100.00
2022-10-20T01:49:11.377Z,100.00
2022-10-20T01:51:38.806Z,100.00
2022-10-20T01:54:06.398Z,100.00
2022-10-20T01:56:42.726Z,100.00
2022-10-20T01:59:47.622Z,100.00
2022-10-20T02:02:26.348Z,100.00
2022-10-20T02:05:12.026Z,100.00
2022-10-20T02:07:42.087Z,100.00
2022-10-20T02:10:24.453Z,100.00
2022-10-20T02:12:56.987Z,100.00
2022-10-20T02:15:31.067Z,100.00
2022-10-20T02:18:06.907Z,100.00
2022-10-20T02:20:34.587Z,100.00
2022-10-20T02:23:04.874Z,100.00
2022-10-20T02:25:34.222Z,100.00
2022-10-20T02:28:04.720Z,100.00
2022-10-20T02:30:32.476Z,100.00
2022-10-20T02:33:00.047Z,100.00
2022-10-20T02:35:32.057Z,100.00
2022-10-20T02:38:00.128Z,100.00
2022-10-20T02:40:28.117Z,100.00
2022-10-20T02:42:55.552Z,100.00
2022-10-20T02:45:25.193Z,100.00
2022-10-20T02:47:52.669Z,100.00
2022-10-20T02:50:19.973Z,100.00
2022-10-20T02:52:47.482Z,100.00
2022-10-20T02:55:14.629Z,100.00
2022-10-20T02:57:42.191Z,100.00
2022-10-20T03:00:10.111Z,100.00
2022-10-20T03:02:37.643Z,100.00
2022-10-20T03:05:05.352Z,100.00
2022-10-20T03:07:32.964Z,100.00
2022-10-20T03:10:00.262Z,100.00
2022-10-20T03:12:30.143Z,100.00
2022-10-20T03:14:59.433Z,100.00
2022-10-20T03:17:26.878Z,100.00
2022-10-20T03:19:54.124Z,100.00
2022-10-20T03:22:21.562Z,100.00
2022-10-20T03:24:48.876Z,100.00
2022-10-20T03:27:16.393Z,100.00
2022-10-20T03:29:43.723Z,100.00
2022-10-20T03:32:11.287Z,100.00
2022-10-20T03:34:38.478Z,100.00
2022-10-20T03:37:05.854Z,100.00
2022-10-20T03:39:33.102Z,100.00
2022-10-20T03:42:00.467Z,100.00
2022-10-20T03:44:27.727Z,100.00
2022-10-20T03:46:55.163Z,100.00
2022-10-20T03:49:22.348Z,100.00
2022-10-20T03:51:49.843Z,100.00
2022-10-20T03:54:16.953Z,100.00
2022-10-20T03:56:44.307Z,100.00
2022-10-20T03:59:12.079Z,100.00
2022-10-20T04:01:39.512Z,100.00
2022-10-20T04:04:06.807Z,100.00
2022-10-20T04:06:34.287Z,100.00
2022-10-20T04:09:01.595Z,100.00
2022-10-20T04:11:29.163Z,100.00
2022-10-20T04:13:56.453Z,100.00
2022-10-20T04:16:24.532Z,100.00
2022-10-20T04:18:55.967Z,100.00
2022-10-20T04:21:25.926Z,100.00
2022-10-20T04:23:53.143Z,100.00
2022-10-20T04:26:20.520Z,100.00
2022-10-20T04:28:47.677Z,100.00
2022-10-20T04:31:15.113Z,100.00
2022-10-20T04:33:42.522Z,100.00
2022-10-20T04:36:12.608Z,100.00
2022-10-20T04:38:39.927Z,100.00
2022-10-20T04:41:07.360Z,100.00
2022-10-20T04:43:34.823Z,100.00
2022-10-20T04:46:07.071Z,100.00
2022-10-20T04:48:37.883Z,100.00
2022-10-20T04:51:10.762Z,100.00
2022-10-20T04:53:40.528Z,100.00
2022-10-20T04:56:10.798Z,100.00
2022-10-20T04:58:37.985Z,100.00
2022-10-20T05:01:08.633Z,100.00
2022-10-20T05:03:37.234Z,100.00
2022-10-20T05:06:17.429Z,100.00
2022-10-20T05:08:47.204Z,100.00
2022-10-20T05:11:18.387Z,100.00
2022-10-20T05:13:45.822Z,100.00
2022-10-20T05:16:13.907Z,100.00
2022-10-20T05:18:41.223Z,100.00
2022-10-20T05:21:14.388Z,100.00
2022-10-20T05:23:42.725Z,100.00
2022-10-20T05:26:13.524Z,100.00
2022-10-20T05:28:44.689Z,100.00
2022-10-20T05:31:12.793Z,100.00
2022-10-20T05:33:51.033Z,100.00
2022-10-20T05:36:21.765Z,100.00
2022-10-20T05:38:51.003Z,100.00
2022-10-20T05:41:20.823Z,100.00
2022-10-20T05:43:50.293Z,100.00
2022-10-20T05:46:19.303Z,100.00
2022-10-20T05:48:47.563Z,100.00
2022-10-20T05:51:18.194Z,100.00
2022-10-20T05:53:47.286Z,100.00
2022-10-20T05:56:17.905Z,100.00
2022-10-20T05:58:45.525Z,100.00
2022-10-20T06:01:21.292Z,100.00
2022-10-20T06:03:52.913Z,100.00
2022-10-20T06:06:22.702Z,100.00
2022-10-20T06:08:51.135Z,100.00
2022-10-20T06:11:22.808Z,100.00
2022-10-20T06:13:52.834Z,100.00
2022-10-20T06:16:23.614Z,100.00
2022-10-20T06:18:51.192Z,100.00
2022-10-20T06:21:21.753Z,100.00
2022-10-20T06:23:49.655Z,100.00
2022-10-20T06:26:33.269Z,100.00
2022-10-20T06:29:03.999Z,100.00
2022-10-20T06:31:40.717Z,100.00
2022-10-20T06:34:11.135Z,100.00
2022-10-20T06:36:40.345Z,100.00
2022-10-20T06:39:10.767Z,100.00
2022-10-20T06:41:39.198Z,100.00
2022-10-20T06:44:10.865Z,100.00
2022-10-20T06:46:38.468Z,100.00
2022-10-20T06:49:08.207Z,100.00
2022-10-20T06:51:35.972Z,100.00
2022-10-20T06:54:03.960Z,100.00
2022-10-20T06:56:36.308Z,100.00
2022-10-20T06:59:07.207Z,100.00
2022-10-20T07:01:36.977Z,100.00
2022-10-20T07:04:07.665Z,100.00
2022-10-20T07:06:38.032Z,100.00
2022-10-20T07:09:08.666Z,100.00
2022-10-20T07:11:36.488Z,100.00
2022-10-20T07:14:06.124Z,100.00
2022-10-20T07:16:35.202Z,100.00
2022-10-20T07:19:04.792Z,100.00
2022-10-20T07:21:36.497Z,100.00
2022-10-20T07:24:06.489Z,100.00
2022-10-20T07:26:36.821Z,100.00
2022-10-20T07:29:05.189Z,100.00
2022-10-20T07:31:36.103Z,100.00
2022-10-20T07:34:23.848Z,100.00
2022-10-20T07:36:52.718Z,100.00
2022-10-20T07:39:19.888Z,100.00
2022-10-20T07:41:48.454Z,100.00
2022-10-20T07:44:16.906Z,100.00
2022-10-20T07:46:44.749Z,100.00
2022-10-20T07:51:59.645Z,100.00
2022-10-20T07:54:27.009Z,100.00
2022-10-20T07:56:54.596Z,100.00
2022-10-20T07:59:21.966Z,100.00
2022-10-20T08:01:51.257Z,100.00
2022-10-20T08:08:01.439Z,100.00
2022-10-20T08:10:29.013Z,99.98
2022-10-20T08:12:56.287Z,95.53
2022-10-20T08:15:23.772Z,80.95
2022-10-20T08:17:51.024Z,81.66
2022-10-20T08:20:27.225Z,82.99
2022-10-20T08:22:54.647Z,83.38
2022-10-20T08:25:22.152Z,72.58
2022-10-20T08:27:49.468Z,66.75
2022-10-20T08:30:23.973Z,65.96
2022-10-20T08:32:53.023Z,67.91
2022-10-20T08:35:21.655Z,66.81
2022-10-20T08:37:49.269Z,62.25
2022-10-20T08:40:23.252Z,59.98
2022-10-20T08:42:51.657Z,62.71
2022-10-20T08:45:24.645Z,60.76
2022-10-20T08:47:59.310Z,59.89
2022-10-20T08:50:28.698Z,55.18
2022-10-20T08:52:59.547Z,53.35
2022-10-20T08:55:29.425Z,50.27
2022-10-20T08:58:12.556Z,52.70
2022-10-20T09:00:40.890Z,53.54
2022-10-20T09:03:33.714Z,45.63
2022-10-20T09:06:13.677Z,47.47
2022-10-20T09:08:42.178Z,48.06
2022-10-20T09:11:15.900Z,47.35
2022-10-20T09:13:43.318Z,48.18
2022-10-20T09:16:33.377Z,46.17
2022-10-20T09:19:18.428Z,45.80
2022-10-20T09:21:51.035Z,44.70
2022-10-20T09:24:21.296Z,46.77
2022-10-20T09:26:59.985Z,49.15
2022-10-20T09:29:39.105Z,48.68
2022-10-20T09:32:47.019Z,47.79
2022-10-20T09:35:22.344Z,49.04
2022-10-20T09:38:04.285Z,49.64
2022-10-20T09:40:32.414Z,49.11
2022-10-20T09:43:17.455Z,48.10
2022-10-20T09:45:55.013Z,46.58
2022-10-20T09:48:49.523Z,45.80
2022-10-20T09:51:27.908Z,47.21
2022-10-20T09:54:05.173Z,46.20
2022-10-20T09:56:41.463Z,46.25
2022-10-20T09:59:33.025Z,45.29
2022-10-20T10:02:04.258Z,45.75
2022-10-20T10:04:33.968Z,45.95
2022-10-20T10:07:02.673Z,46.94
2022-10-20T10:09:35.333Z,44.42
2022-10-20T10:12:17.486Z,47.72
2022-10-20T10:15:00.682Z,47.49
2022-10-20T10:17:33.661Z,46.48
2022-10-20T10:20:26.406Z,42.42
2022-10-20T10:23:13.866Z,42.82
2022-10-20T10:25:41.466Z,45.43
2022-10-20T10:28:24.698Z,43.25
2022-10-20T10:31:05.968Z,44.94
2022-10-20T10:33:35.830Z,46.13
2022-10-20T10:36:11.754Z,44.10
2022-10-20T10:38:39.096Z,43.99
2022-10-20T10:41:25.879Z,43.77
2022-10-20T10:44:07.853Z,41.90
2022-10-20T10:46:47.977Z,43.47
2022-10-20T10:49:54.959Z,43.91
2022-10-20T10:52:51.645Z,47.00
2022-10-20T10:55:47.812Z,44.49
2022-10-20T10:58:19.308Z,43.61
2022-10-20T11:00:52.834Z,41.57
2022-10-20T11:03:37.682Z,41.21
2022-10-20T11:06:30.509Z,39.17
2022-10-20T11:09:13.322Z,39.80
2022-10-20T11:11:48.033Z,40.30
2022-10-20T11:14:39.134Z,39.79
2022-10-20T11:17:12.109Z,39.51
2022-10-20T11:20:07.495Z,36.92
2022-10-20T11:22:50.598Z,39.21
2022-10-20T11:25:33.359Z,37.75
2022-10-20T11:28:00.907Z,40.37
2022-10-20T11:30:30.564Z,41.01
2022-10-20T11:33:00.635Z,40.09
2022-10-20T11:35:52.153Z,38.13
2022-10-20T11:38:37.695Z,38.13
2022-10-20T11:41:31.326Z,36.84
2022-10-20T11:44:05.216Z,35.76
2022-10-20T11:46:41.812Z,37.63
2022-10-20T11:49:12.417Z,38.36
2022-10-20T11:52:12.075Z,36.18
2022-10-20T11:54:58.036Z,36.22
2022-10-20T11:57:43.599Z,36.39
2022-10-20T12:00:17.216Z,37.19
2022-10-20T12:03:21.994Z,35.18
2022-10-20T12:06:27.235Z,34.49
2022-10-20T12:09:19.040Z,34.95
2022-10-20T12:11:57.606Z,35.13
2022-10-20T12:14:33.001Z,34.93
2022-10-20T12:17:12.510Z,34.58
2022-10-20T12:19:40.402Z,35.21
2022-10-20T12:22:30.483Z,35.77
2022-10-20T12:24:57.863Z,36.56
2022-10-20T12:27:30.261Z,36.45
2022-10-20T12:30:02.248Z,34.70
2022-10-20T12:32:29.519Z,35.94
2022-10-20T12:35:00.369Z,35.80
2022-10-20T12:37:31.174Z,35.10
2022-10-20T12:40:07.553Z,34.91
2022-10-20T12:42:48.343Z,33.70
2022-10-20T12:45:18.750Z,35.11
2022-10-20T12:47:53.375Z,36.18
2022-10-20T12:50:44.917Z,36.16
2022-10-20T12:53:21.769Z,37.62
2022-10-20T12:56:03.303Z,38.28
2022-10-20T12:58:34.665Z,39.31
2022-10-20T13:01:07.270Z,40.78
2022-10-20T13:03:43.883Z,41.45
2022-10-20T13:06:23.375Z,42.36
2022-10-20T13:09:03.167Z,42.81
2022-10-20T13:11:39.658Z,43.29
2022-10-20T13:14:13.382Z,44.12
2022-10-20T13:16:51.338Z,45.01
2022-10-20T13:19:30.183Z,43.96
2022-10-20T13:21:58.028Z,43.79
2022-10-20T13:24:34.399Z,44.91
2022-10-20T13:27:09.215Z,45.14
2022-10-20T13:29:40.308Z,45.15
2022-10-20T13:32:32.068Z,47.54
2022-10-20T13:35:53.552Z,47.66
2022-10-20T13:38:39.383Z,47.68
2022-10-20T13:41:28.503Z,48.95
2022-10-20T13:44:13.358Z,47.36
2022-10-20T13:47:00.085Z,47.53
2022-10-20T13:49:30.548Z,47.24
2022-10-20T13:52:03.293Z,47.17
2022-10-20T13:54:34.486Z,48.24
2022-10-20T13:57:02.958Z,48.60
2022-10-20T13:59:30.867Z,49.14
2022-10-20T14:02:03.993Z,48.66
2022-10-20T14:04:34.555Z,48.82
2022-10-20T14:07:13.564Z,49.41
2022-10-20T14:09:45.376Z,49.75
2022-10-20T14:12:25.771Z,49.38
2022-10-20T14:15:01.447Z,48.88
2022-10-20T14:17:29.887Z,48.76
2022-10-20T14:20:19.347Z,47.84
2022-10-20T14:22:48.379Z,48.62
2022-10-20T14:25:16.515Z,48.80
2022-10-20T14:27:45.523Z,48.86
2022-10-20T14:30:16.843Z,48.00
2022-10-20T14:32:46.296Z,48.06
2022-10-20T14:35:18.859Z,46.97
2022-10-20T14:37:52.950Z,46.46
2022-10-20T14:40:31.636Z,46.93
2022-10-20T14:43:06.638Z,46.38
2022-10-20T14:45:34.583Z,46.96
2022-10-20T14:48:02.566Z,45.63
2022-10-20T14:50:41.070Z,46.71
2022-10-20T14:53:25.399Z,48.27
2022-10-20T14:55:56.034Z,48.19
2022-10-20T14:58:30.748Z,49.22
2022-10-20T15:01:26.032Z,49.38
2022-10-20T15:04:17.107Z,49.28
2022-10-20T15:06:44.848Z,49.97
2022-10-20T15:09:26.093Z,51.02
2022-10-20T15:11:53.628Z,51.31
2022-10-20T15:14:21.725Z,51.98
2022-10-20T15:16:50.145Z,52.85
2022-10-20T15:19:25.965Z,55.07
2022-10-20T15:22:02.976Z,57.20
2022-10-20T15:24:30.706Z,57.42
2022-10-20T15:26:59.368Z,59.46
2022-10-20T15:29:28.037Z,62.33
2022-10-20T15:31:55.898Z,66.78
2022-10-20T15:34:23.616Z,71.04
2022-10-20T15:36:51.269Z,74.89
2022-10-20T15:39:19.005Z,78.72
2022-10-20T15:41:49.039Z,82.22
2022-10-20T15:44:24.034Z,86.21
2022-10-20T15:46:55.590Z,90.70
2022-10-20T15:49:24.031Z,93.48
2022-10-20T15:51:51.896Z,96.07
2022-10-20T15:54:21.567Z,100.00
2022-10-20T15:56:49.128Z,100.00
2022-10-20T15:59:17.102Z,100.00
2022-10-20T16:01:47.104Z,100.00
2022-10-20T16:04:23.533Z,100.00
2022-10-20T16:06:57.817Z,100.00
2022-10-20T16:09:28.054Z,100.00
2022-10-20T16:11:55.385Z,100.00
2022-10-20T16:14:23.071Z,100.00
2022-10-20T16:16:50.405Z,100.00
2022-10-20T16:19:17.936Z,100.00
2022-10-20T16:21:45.236Z,100.00
2022-10-20T16:24:12.715Z,100.00
2022-10-20T16:26:40.368Z,100.00
2022-10-20T16:29:07.893Z,100.00
2022-10-20T16:31:35.775Z,100.00
2022-10-20T16:34:03.617Z,100.00
2022-10-20T16:36:35.076Z,100.00
2022-10-20T16:39:02.814Z,100.00
2022-10-20T16:41:30.290Z,100.00
2022-10-20T16:44:01.410Z,100.00
2022-10-20T16:46:29.059Z,100.00
2022-10-20T16:48:57.500Z,100.00
2022-10-20T16:51:25.368Z,100.00
2022-10-20T16:54:00.801Z,100.00
2022-10-20T16:56:32.885Z,100.00
2022-10-20T16:59:04.452Z,100.00
2022-10-20T17:01:32.178Z,100.00
2022-10-20T17:03:59.738Z,100.00
2022-10-20T17:06:29.765Z,100.00
2022-10-20T17:08:59.481Z,100.00
2022-10-20T17:11:29.433Z,100.00
2022-10-20T17:13:57.944Z,100.00
2022-10-20T17:16:32.225Z,100.00
2022-10-20T17:19:01.927Z,100.00
2022-10-20T17:21:31.565Z,100.00
2022-10-20T17:23:59.677Z,100.00
2022-10-20T17:26:30.719Z,100.00
2022-10-20T17:29:00.370Z,100.00
2022-10-20T17:31:31.412Z,100.00
2022-10-20T17:33:59.862Z,100.00
2022-10-20T17:36:30.560Z,100.00
2022-10-20T17:39:05.784Z,100.00
2022-10-20T17:41:33.661Z,100.00
2022-10-20T17:44:05.278Z,100.00
2022-10-20T17:46:33.635Z,100.00
2022-10-20T17:49:04.047Z,100.00
2022-10-20T17:51:34.467Z,100.00
2022-10-20T17:54:03.601Z,100.00
2022-10-20T17:56:36.218Z,100.00
2022-10-20T17:59:06.680Z,100.00
2022-10-20T18:01:41.359Z,100.00
2022-10-20T18:04:12.694Z,100.00
2022-10-20T18:06:40.803Z,100.00
2022-10-20T18:09:11.436Z,100.00
2022-10-20T18:11:40.868Z,100.00
2022-10-20T18:14:08.267Z,100.00
2022-10-20T18:16:37.488Z,100.00
2022-10-20T18:19:05.653Z,100.00
2022-10-20T18:21:33.308Z,100.00
2022-10-20T18:24:03.447Z,100.00
2022-10-20T18:26:34.047Z,100.00
2022-10-20T18:29:03.063Z,100.00
2022-10-20T18:31:32.573Z,100.00
2022-10-20T18:34:05.759Z,100.00
2022-10-20T18:36:37.950Z,100.00
2022-10-20T18:39:08.465Z,100.00
2022-10-20T18:41:38.819Z,100.00
2022-10-20T18:44:11.028Z,100.00
2022-10-20T18:46:42.058Z,100.00
2022-10-20T18:49:12.860Z,100.00
2022-10-20T18:51:44.914Z,100.00
2022-10-20T18:54:12.938Z,100.00
2022-10-20T18:56:40.254Z,100.00
2022-10-20T18:59:09.895Z,100.00
2022-10-20T19:01:39.274Z,100.00
2022-10-20T19:04:09.203Z,100.00
2022-10-20T19:06:44.409Z,100.00
2022-10-20T19:09:18.609Z,100.00
2022-10-20T19:11:47.556Z,100.00
2022-10-20T19:14:16.100Z,100.00
2022-10-20T19:16:47.207Z,100.00
2022-10-20T19:19:15.495Z,100.00
2022-10-20T19:21:45.206Z,100.00
2022-10-20T19:24:19.959Z,100.00
2022-10-20T19:27:02.142Z,100.00
2022-10-20T19:29:42.809Z,100.00
2022-10-20T19:32:11.686Z,100.00
2022-10-20T19:34:42.262Z,100.00
2022-10-20T19:37:09.969Z,100.00
2022-10-20T19:39:41.004Z,100.00
2022-10-20T19:42:11.548Z,100.00
2022-10-20T19:44:40.090Z,100.00
2022-10-20T19:47:08.537Z,100.00
2022-10-20T19:49:36.328Z,100.00
2022-10-20T19:52:04.604Z,100.00
2022-10-20T19:54:32.496Z,100.00
2022-10-20T19:57:00.184Z,100.00
2022-10-20T19:59:28.186Z,100.00
2022-10-20T20:01:55.869Z,100.00
2022-10-20T20:04:23.695Z,100.00
2022-10-20T20:06:51.579Z,100.00
2022-10-20T20:09:19.299Z,100.00
2022-10-20T20:11:49.295Z,100.00
2022-10-20T20:14:19.435Z,100.00
2022-10-20T20:16:51.028Z,100.00
2022-10-20T20:19:19.855Z,100.00
2022-10-20T20:21:47.514Z,100.00
2022-10-20T20:24:15.187Z,100.00
2022-10-20T20:26:44.663Z,100.00
2022-10-20T20:29:12.415Z,100.00
2022-10-20T20:31:39.766Z,100.00
2022-10-20T20:34:07.431Z,100.00
2022-10-20T20:36:39.996Z,100.00
2022-10-20T20:39:08.225Z,100.00
2022-10-20T20:41:35.624Z,100.00
2022-10-20T20:44:07.889Z,100.00
2022-10-20T20:46:36.735Z,100.00
2022-10-20T20:49:04.766Z,100.00
2022-10-20T20:51:34.955Z,100.00
2022-10-20T20:54:04.121Z,100.00
2022-10-20T20:56:31.968Z,100.00
2022-10-20T20:58:59.876Z,100.00
2022-10-20T21:01:31.402Z,100.00
2022-10-20T21:04:01.558Z,100.00
2022-10-20T21:06:33.988Z,100.00
2022-10-20T21:09:11.478Z,100.00
2022-10-20T21:11:39.025Z,100.00
2022-10-20T21:14:06.678Z,100.00
2022-10-20T21:16:36.986Z,100.00
2022-10-20T21:19:08.797Z,100.00
2022-10-20T21:21:45.075Z,100.00
2022-10-20T21:24:14.404Z,100.00
2022-10-20T21:26:41.678Z,100.00
2022-10-20T21:29:09.439Z,100.00
2022-10-20T21:31:36.892Z,100.00
2022-10-20T21:34:05.655Z,100.00
2022-10-20T21:36:35.527Z,100.00
2022-10-20T21:39:05.575Z,100.00
2022-10-20T21:41:34.987Z,100.00
2022-10-20T21:44:06.005Z,100.00
2022-10-20T21:46:47.850Z,100.00
2022-10-20T21:49:19.608Z,100.00
2022-10-20T21:51:55.575Z,100.00
2022-10-20T21:54:25.314Z,100.00
2022-10-20T21:56:52.866Z,100.00
2022-10-20T21:59:22.574Z,100.00
2022-10-20T22:01:50.965Z,100.00
2022-10-20T22:04:20.623Z,100.00
2022-10-20T22:06:48.204Z,100.00
2022-10-20T22:09:16.735Z,100.00
2022-10-20T22:11:49.890Z,100.00
2022-10-20T22:14:19.758Z,100.00
2022-10-20T22:16:47.039Z,100.00
2022-10-20T22:19:18.395Z,100.00
2022-10-20T22:21:48.242Z,100.00
2022-10-20T22:24:18.947Z,100.00
2022-10-20T22:26:47.046Z,100.00
2022-10-20T22:29:14.676Z,100.00
2022-10-20T22:31:42.056Z,100.00
2022-10-20T22:34:12.354Z,100.00
2022-10-20T22:36:40.970Z,100.00
2022-10-20T22:39:09.125Z,100.00
2022-10-20T22:41:36.745Z,100.00
2022-10-20T22:44:05.069Z,100.00
2022-10-20T22:46:32.808Z,100.00
2022-10-20T22:49:00.374Z,100.00
2022-10-20T22:51:28.668Z,100.00
2022-10-20T22:53:56.242Z,100.00
2022-10-20T22:56:25.712Z,100.00
2022-10-20T22:58:54.517Z,100.00
2022-10-20T23:01:23.753Z,100.00
2022-10-20T23:03:51.409Z,100.00
2022-10-20T23:06:21.885Z,100.00
2022-10-20T23:08:52.257Z,100.00
2022-10-20T23:11:19.948Z,100.00
2022-10-20T23:13:48.309Z,100.00
2022-10-20T23:16:15.781Z,100.00
2022-10-20T23:18:43.482Z,100.00
2022-10-20T23:21:13.112Z,100.00
2022-10-20T23:23:41.487Z,100.00
2022-10-20T23:26:09.030Z,100.00
2022-10-20T23:28:37.768Z,100.00
2022-10-20T23:31:06.113Z,100.00
2022-10-20T23:33:33.708Z,100.00
2022-10-20T23:36:01.013Z,100.00
2022-10-20T23:38:28.469Z,100.00
2022-10-20T23:40:55.857Z,100.00
2022-10-20T23:43:23.643Z,100.00
2022-10-20T23:45:50.955Z,100.00
2022-10-20T23:48:18.579Z,100.00
2022-10-20T23:50:45.829Z,100.00
2022-10-20T23:53:13.682Z,100.00
2022-10-20T23:55:41.145Z,100.00
2022-10-20T23:58:08.703Z,100.00
